Terminal Aerodrome Forecast
Issued by NWS

Home | Current Version | Previous Version | Text Only | Print | Product List | Glossary On
Versions: 1 2 3 4 5 6 7 8 9 10 11 12 13 14 15 16
189
FTUS42 KTAE 211720
TAFABY
TAF
KABY 211720Z 2118/2218 08012G18KT P6SM BKN035
     FM220200 10010KT P6SM BKN025
     FM220900 09011KT P6SM BKN015
     FM221500 12013G18KT P6SM SCT015 BKN025=

USA.gov is the U.S. government's official web portal to all federal, state and local government web resources and services.